Bonney, Texas
Current Conditions -  °F | °C
As of 6:53 PM on Saturday 25 Oct 2014 (Local Time) from KLBX Reporting Station
Clear Clear  
Wind Chill: 70°   Ceiling: Unl
Heat Index: 70°   Visibility: 10mi
Dew Point: 61°   Wind: 5mph
Humidity: 73%   Direction: 120°ESE
Pressure: 30.1"   Gusts: NA
Location:  29.1898°N, 95.4754°W
Report Text: KLBX 252353Z AUTO 12004KT 10SM CLR 21/16 A3010 RMK AO2 SLP193 T02110161 10283 20211 56000
Loading
Personal Weather Stations






























Interactive Weather Map
Tropical Storm Tracking
New forecast layout! Learn more

10-Day Weather Forecast

Advertisements
Track Severe Weather on mobile